Terminal Aerodrome Forecast
Issued by NWS

Home | Current Version | Previous Version | Graphics & Text | Print | Product List | Glossary On
Versions: 1 2 3 4 5 6 7 8 9 10 11 12 13 14 15
000
FTUS43 KMPX 081039 AAA
TAFRWF
TAF AMD
KRWF 081039Z 0811/0906 33022G32KT 2SM -SN BLSN OVC015
     FM081700 33024G32KT P6SM BKN025
     FM090300 32018G26KT P6SM BKN025=

USA.gov is the U.S. government's official web portal to all federal, state and local government web resources and services.